Accueil
METAR-TAF:

METAR-TAF

Aéroports :

Guaymas, Mexique

latitude: 27-58N, longitude: 110-56W, altitude: 27 m

Observation

Le bulletin a été fait il y a 5 heures et 49 minutes, à 01:40 UTC
Vent calme
Température 21°C
Humidité 38%
Pression 1012 hPa
Visibilité: 16.1 km
Ciel clair

METAR: MMGM 020140Z 00000KT 10SM SKC 21/06 A2987

Heure: 00:29 (07:29 UTC)

Prévision

Le bulletin a été fait il y a 1 heure et 50 minutes, à 05:39 UTC
Prévision valable du 02 à 06 UTC au 03 à 06 UTC
Vent kt de nord
Visibilité: 10 km
Ciel clair
A partir de 02 à 1800 UTC
Vent 12 kt de nord/nord-ouest
Visibilité: 10 km
Ciel clair
A partir de 03 à 0300 UTC
Vent 5 kt de nord/nord-est
Visibilité: 10 km
Ciel clair

TAF: MMGM 020539Z 0206/0306 00000KT P6SM SKC FM021800 34012KT P6SM SKC FM030300 03005KT P6SM SKC

Observations et prévisions météorologiques de plus de 4000 aéroports (messages METAR et TAF).

Les stations disponibles sont représentées par des disques jaunes et rouges sur la carte.

Passer la souris dessus pour voir le nom de la station.

Cliquer dessus pour voir les observations et prévisions météorologiques.

Pour changer de carte: cliquez sur les boutons verts avec une croix noire pour zoomer, sur le bouton vert avec un tiret pour effectuer un zoom arrière, ou sur les flèches vertes pour les cartes adjacentes.


METAR-TAF: